createdAt,value
2018-05-11T14:57:39.422Z,7.77
2018-05-11T15:00:07.569Z,8.13
2018-05-11T15:02:36.507Z,8.90
2018-05-11T15:05:04.651Z,9.30
2018-05-11T15:07:32.762Z,8.80
2018-05-11T15:10:01.662Z,8.73
2018-05-11T15:12:30.175Z,8.90
2018-05-11T15:15:04.843Z,7.93
2018-05-11T15:17:32.983Z,8.00
2018-05-11T15:20:01.105Z,8.50
2018-05-11T15:22:29.259Z,8.20
2018-05-11T15:24:57.387Z,7.97
2018-05-11T15:27:25.525Z,9.10
2018-05-11T15:29:59.950Z,8.80
2018-05-11T15:32:28.669Z,7.93
2018-05-11T15:34:56.818Z,8.80
2018-05-11T15:37:25.343Z,8.77
2018-05-11T15:39:53.455Z,9.13
2018-05-11T15:42:21.593Z,8.20
2018-05-11T15:44:49.719Z,8.87
2018-05-11T15:47:18.609Z,8.73
2018-05-11T15:49:47.101Z,8.50
2018-05-11T15:52:15.258Z,8.90
2018-05-11T15:54:43.383Z,9.00
2018-05-11T15:57:12.397Z,9.30
2018-05-11T15:59:40.523Z,11.40
2018-05-11T16:02:09.443Z,9.80
2018-05-11T16:04:37.562Z,10.03
2018-05-11T16:07:05.715Z,10.20
2018-05-11T16:09:34.302Z,10.40
2018-05-11T16:12:03.147Z,11.20
2018-05-11T16:14:32.323Z,11.53
2018-05-11T16:17:01.255Z,12.60
2018-05-11T16:19:29.366Z,12.70
2018-05-11T16:21:57.507Z,12.43
2018-05-11T16:24:25.609Z,13.00
2018-05-11T16:26:54.658Z,14.00
2018-05-11T16:29:23.515Z,13.90
2018-05-11T16:31:51.658Z,13.80
2018-05-11T16:34:19.784Z,14.90
2018-05-11T16:36:47.936Z,12.97
2018-05-11T16:39:18.602Z,15.10
2018-05-11T16:41:46.804Z,15.30
2018-05-11T16:44:14.947Z,14.83
2018-05-11T16:46:43.063Z,15.30
2018-05-11T16:49:12.306Z,15.87
2018-05-11T16:51:40.427Z,17.33
2018-05-11T16:54:08.563Z,17.83
2018-05-11T16:56:36.697Z,17.40
2018-05-11T16:59:05.687Z,18.73
2018-05-11T17:01:34.655Z,17.70
2018-05-11T17:04:02.789Z,18.07
2018-05-11T17:06:30.916Z,18.30
2018-05-11T17:08:59.924Z,19.13
2018-05-11T17:11:28.043Z,17.20
2018-05-11T17:13:56.206Z,16.90
2018-05-11T17:16:25.113Z,17.83
2018-05-11T17:18:53.171Z,16.20
2018-05-11T17:21:21.346Z,16.90
2018-05-11T17:23:49.478Z,16.30
2018-05-11T17:26:17.595Z,15.67
2018-05-11T17:28:45.734Z,16.07
2018-05-11T17:31:13.855Z,14.93
2018-05-11T17:33:41.987Z,15.23
2018-05-11T17:36:10.873Z,15.40
2018-05-11T17:38:40.143Z,16.20
2018-05-11T17:41:08.286Z,14.77
2018-05-11T17:43:36.436Z,14.83
2018-05-11T17:46:05.803Z,14.70
2018-05-11T17:48:33.960Z,15.60
2018-05-11T17:51:02.255Z,15.13
2018-05-11T17:53:30.413Z,14.50
2018-05-11T17:55:59.533Z,14.20
2018-05-11T17:58:27.813Z,14.40
2018-05-11T18:00:57.540Z,14.07
2018-05-11T18:03:27.254Z,14.70
2018-05-11T18:05:56.135Z,13.27
2018-05-11T18:08:24.267Z,13.40
2018-05-11T18:10:52.769Z,14.17
2018-05-11T18:13:27.091Z,14.67
2018-05-11T18:15:55.206Z,14.80
2018-05-11T18:18:23.371Z,13.80
2018-05-11T18:20:52.109Z,15.83
2018-05-11T18:23:20.253Z,14.57
2018-05-11T18:25:48.358Z,13.83
2018-05-11T18:28:16.495Z,14.93
2018-05-11T18:30:44.656Z,15.40
2018-05-11T18:33:12.798Z,15.47
2018-05-11T18:35:42.472Z,15.50
2018-05-11T18:38:11.370Z,14.40
2018-05-11T18:40:40.255Z,14.57
2018-05-11T18:43:14.935Z,14.30
2018-05-11T18:45:43.049Z,14.27
2018-05-11T18:48:11.970Z,15.60
2018-05-11T18:50:40.088Z,13.40
2018-05-11T18:53:08.515Z,14.70
2018-05-11T18:55:37.993Z,14.67
2018-05-11T18:58:06.143Z,14.37
2018-05-11T19:00:34.261Z,14.83
2018-05-11T19:03:03.167Z,14.20
2018-05-11T19:05:31.282Z,15.20
2018-05-11T19:08:01.037Z,14.47
2018-05-11T19:10:29.948Z,14.90
2018-05-11T19:12:58.071Z,13.57
2018-05-11T19:15:26.223Z,14.33
2018-05-11T19:17:54.434Z,13.87
2018-05-11T19:20:22.508Z,13.50
2018-05-11T19:22:50.657Z,14.93
2018-05-11T19:25:18.837Z,13.30
2018-05-11T19:27:46.977Z,12.77
2018-05-11T19:30:15.933Z,12.83
2018-05-11T19:32:44.815Z,13.00
2018-05-11T19:35:13.723Z,12.50
2018-05-11T19:37:42.747Z,12.47
2018-05-11T19:40:10.891Z,13.37
2018-05-11T19:42:39.768Z,12.37
2018-05-11T19:45:08.053Z,12.10
2018-05-11T19:47:36.947Z,11.83
2018-05-11T19:50:06.092Z,12.30
2018-05-11T19:52:34.261Z,11.93
2018-05-11T19:55:02.456Z,12.80
2018-05-11T19:57:30.687Z,11.87
2018-05-11T19:59:58.867Z,12.30
2018-05-11T20:02:28.571Z,12.20
2018-05-11T20:04:56.757Z,12.80
2018-05-11T20:07:24.872Z,13.50
2018-05-11T20:09:53.777Z,12.53
2018-05-11T20:12:22.269Z,12.70
2018-05-11T20:14:51.174Z,12.77
2018-05-11T20:17:19.273Z,13.07
2018-05-11T20:19:47.412Z,13.10
2018-05-11T20:22:15.526Z,12.40
2018-05-11T20:24:43.666Z,11.77
2018-05-11T20:27:11.777Z,12.83
2018-05-11T20:29:39.915Z,11.73
2018-05-11T20:32:08.037Z,12.10
2018-05-11T20:34:36.198Z,13.20
2018-05-11T20:37:04.302Z,13.27
2018-05-11T20:39:33.201Z,13.57
2018-05-11T20:42:01.698Z,12.83
2018-05-11T20:44:29.849Z,13.50
2018-05-11T20:46:57.977Z,13.20
2018-05-11T20:49:26.114Z,15.17
2018-05-11T20:51:54.990Z,13.43
2018-05-11T20:54:23.878Z,13.17
2018-05-11T20:56:52.763Z,14.10
2018-05-11T20:59:20.905Z,13.57
2018-05-11T21:01:49.021Z,15.67
2018-05-11T21:04:17.926Z,14.63
2018-05-11T21:06:46.051Z,14.10
2018-05-11T21:09:14.189Z,15.50
2018-05-11T21:11:42.307Z,12.83
2018-05-11T21:14:10.430Z,13.70
2018-05-11T21:16:38.559Z,13.40
2018-05-11T21:19:06.695Z,13.30
2018-05-11T21:21:34.822Z,14.70
2018-05-11T21:24:04.533Z,14.67
2018-05-11T21:26:33.429Z,14.47
2018-05-11T21:29:02.422Z,14.20
2018-05-11T21:31:31.315Z,15.27
2018-05-11T21:34:00.219Z,13.37
2018-05-11T21:36:28.330Z,13.30
2018-05-11T21:38:58.415Z,14.00
2018-05-11T21:41:29.208Z,13.43
2018-05-11T21:43:57.340Z,14.40
2018-05-11T21:46:25.458Z,14.60
2018-05-11T21:48:53.581Z,14.90
2018-05-11T21:51:21.704Z,14.77
2018-05-11T21:53:49.822Z,12.63
2018-05-11T21:56:17.949Z,12.70
2018-05-11T21:58:46.566Z,13.50
2018-05-11T22:01:15.496Z,13.47
2018-05-11T22:03:43.618Z,13.50
2018-05-11T22:06:12.533Z,14.60
2018-05-11T22:08:40.655Z,14.50
2018-05-11T22:11:08.800Z,14.57
2018-05-11T22:13:36.969Z,14.73
2018-05-11T22:16:05.847Z,13.93
2018-05-11T22:18:33.965Z,14.20
2018-05-11T22:21:02.106Z,15.23
2018-05-11T22:23:30.236Z,14.60
2018-05-11T22:25:58.379Z,14.50
2018-05-11T22:28:26.492Z,15.37
2018-05-11T22:30:55.224Z,14.47
2018-05-11T22:33:23.352Z,15.63
2018-05-11T22:35:51.500Z,12.90
2018-05-11T22:38:19.620Z,15.23
2018-05-11T22:40:47.773Z,14.43
2018-05-11T22:43:16.653Z,14.40
2018-05-11T22:45:44.803Z,16.57
2018-05-11T22:48:14.133Z,15.27
2018-05-11T22:50:42.278Z,15.87
2018-05-11T22:53:10.385Z,15.73
2018-05-11T22:55:39.875Z,14.57
2018-05-11T22:58:08.673Z,15.90
2018-05-11T23:00:39.261Z,15.10
2018-05-11T23:03:07.898Z,15.20
2018-05-11T23:05:36.798Z,14.80
2018-05-11T23:08:05.667Z,14.50
2018-05-11T23:10:33.804Z,15.57
2018-05-11T23:13:01.916Z,15.80
2018-05-11T23:15:32.059Z,14.10
2018-05-11T23:18:00.940Z,14.07
2018-05-11T23:20:29.848Z,12.90
2018-05-11T23:22:57.969Z,15.03
2018-05-11T23:25:26.110Z,15.30
2018-05-11T23:27:54.711Z,16.93
2018-05-11T23:30:22.851Z,15.43
2018-05-11T23:32:50.981Z,16.00
2018-05-11T23:35:19.498Z,15.73
2018-05-11T23:37:48.477Z,15.40
2018-05-11T23:40:17.064Z,15.77
2018-05-11T23:42:45.956Z,15.50
2018-05-11T23:45:14.866Z,15.73
2018-05-11T23:47:42.995Z,15.10
2018-05-11T23:50:11.176Z,14.83
2018-05-11T23:52:39.327Z,13.07
2018-05-11T23:55:07.464Z,12.57
2018-05-11T23:57:35.582Z,12.43
